createdAt,value
2017-09-09T00:00:45.562Z,15.5
2017-09-09T00:01:44.727Z,15.5
2017-09-09T00:02:44.520Z,15.5
2017-09-09T00:03:43.435Z,15.5
2017-09-09T00:04:42.853Z,15.5
2017-09-09T00:05:42.146Z,15.5
2017-09-09T00:06:41.556Z,15.5
2017-09-09T00:07:11.663Z,15.5
2017-09-09T00:07:42.272Z,15.5
2017-09-09T00:08:40.312Z,15.5
2017-09-09T00:09:38.977Z,15.5
2017-09-09T00:10:38.528Z,15.5
2017-09-09T00:11:37.823Z,15.5
2017-09-09T00:12:37.112Z,15.5
2017-09-09T00:13:36.292Z,15.5
2017-09-09T00:14:35.715Z,15.5
2017-09-09T00:15:35.145Z,15.5
2017-09-09T00:16:34.307Z,15.5
2017-09-09T00:18:32.363Z,15.5
2017-09-09T00:19:32.286Z,15.4
2017-09-09T00:20:31.578Z,15.4
2017-09-09T00:21:30.372Z,15.4
2017-09-09T00:23:29.191Z,15.4
2017-09-09T00:24:28.481Z,15.4
2017-09-09T00:25:27.400Z,15.4
2017-09-09T00:26:27.202Z,15.4
2017-09-09T00:27:25.993Z,15.4
2017-09-09T00:28:25.792Z,15.4
2017-09-09T00:29:24.711Z,15.4
2017-09-09T00:31:23.144Z,15.4
2017-09-09T00:32:22.437Z,15.4
2017-09-09T00:33:22.110Z,15.3
2017-09-09T00:35:20.284Z,15.3
2017-09-09T00:36:19.827Z,15.3
2017-09-09T00:37:19.248Z,15.3
2017-09-09T00:38:18.536Z,15.3
2017-09-09T00:39:17.319Z,15.3
2017-09-09T00:40:16.611Z,15.3
2017-09-09T00:41:16.027Z,15.3
2017-09-09T00:42:15.195Z,15.3
2017-09-09T00:43:14.614Z,15.3
2017-09-09T00:44:14.032Z,15.3
2017-09-09T00:45:13.197Z,15.3
2017-09-09T00:46:12.493Z,15.3
2017-09-09T00:47:12.044Z,15.3
2017-09-09T00:48:10.958Z,15.3
2017-09-09T00:49:10.245Z,15.3
2017-09-09T00:50:09.541Z,15.3
2017-09-09T00:51:08.959Z,15.3
2017-09-09T00:52:08.506Z,15.3
2017-09-09T00:53:07.296Z,15.3
2017-09-09T00:54:06.464Z,15.3
2017-09-09T00:55:05.757Z,15.3
2017-09-09T00:56:05.321Z,15.3
2017-09-09T00:57:04.242Z,15.3
2017-09-09T00:58:03.913Z,15.3
2017-09-09T00:59:03.334Z,15.3
2017-09-09T01:00:02.249Z,15.3
2017-09-09T01:01:01.551Z,15.3
2017-09-09T01:03:00.099Z,15.3
2017-09-09T01:03:59.264Z,15.3
2017-09-09T01:04:58.427Z,15.3
2017-09-09T01:05:58.222Z,15.3
2017-09-09T01:06:57.008Z,15.3
2017-09-09T01:07:56.429Z,15.3
2017-09-09T01:08:56.104Z,15.3
2017-09-09T01:09:54.998Z,15.3
2017-09-09T01:10:54.423Z,15.3
2017-09-09T01:11:53.718Z,15.3
2017-09-09T01:12:53.267Z,15.3
2017-09-09T01:13:52.062Z,15.3
2017-09-09T01:14:51.102Z,15.3
2017-09-09T01:15:51.022Z,15.3
2017-09-09T01:16:49.933Z,15.3
2017-09-09T01:17:49.229Z,15.3
2017-09-09T01:19:48.036Z,15.3
2017-09-09T01:20:47.577Z,15.3
2017-09-09T01:21:46.247Z,15.3
2017-09-09T01:22:45.286Z,15.3
2017-09-09T01:23:45.086Z,15.3
2017-09-09T01:24:44.251Z,15.3
2017-09-09T01:26:43.059Z,15.3
2017-09-09T01:28:41.238Z,15.3
2017-09-09T01:29:40.540Z,15.3
2017-09-09T01:30:39.835Z,15.3
2017-09-09T01:31:39.124Z,15.3
2017-09-09T01:32:38.294Z,15.3
2017-09-09T01:33:37.590Z,15.3
2017-09-09T01:34:36.878Z,15.3
2017-09-09T01:35:36.170Z,15.3
2017-09-09T01:37:34.595Z,15.3
2017-09-09T01:38:34.265Z,15.3
2017-09-09T01:41:32.338Z,15.3
2017-09-09T01:42:31.378Z,15.3
2017-09-09T01:43:30.679Z,15.3
2017-09-09T01:44:29.594Z,15.3
2017-09-09T01:45:28.761Z,15.3
2017-09-09T01:46:28.183Z,15.3
2017-09-09T01:47:27.352Z,15.3
2017-09-09T01:48:26.517Z,15.3
2017-09-09T01:49:25.937Z,15.3
2017-09-09T01:50:25.482Z,15.3
2017-09-09T01:51:24.652Z,15.3
2017-09-09T01:52:24.071Z,15.3
2017-09-09T01:53:23.489Z,15.3
2017-09-09T01:54:22.405Z,15.3
2017-09-09T01:54:52.636Z,15.3
2017-09-09T01:55:23.497Z,15.3
2017-09-09T01:55:53.485Z,15.3
2017-09-09T01:56:24.096Z,15.3
2017-09-09T01:56:54.588Z,15.3
2017-09-09T01:57:24.814Z,15.3
2017-09-09T01:57:54.832Z,15.3
2017-09-09T01:59:18.622Z,15.3
2017-09-09T02:00:17.919Z,15.3
2017-09-09T02:01:17.208Z,15.3
2017-09-09T02:02:16.249Z,15.3
2017-09-09T02:03:16.043Z,15.3
2017-09-09T02:04:15.464Z,15.3
2017-09-09T02:05:14.762Z,15.3
2017-09-09T02:06:13.552Z,15.3
2017-09-09T02:07:12.848Z,15.3
2017-09-09T02:08:12.014Z,15.3
2017-09-09T02:09:11.810Z,15.2
2017-09-09T02:10:11.105Z,15.2
2017-09-09T02:11:10.024Z,15.2
2017-09-09T02:12:09.319Z,15.2
2017-09-09T02:13:08.611Z,15.2
2017-09-09T02:14:08.158Z,15.2
2017-09-09T02:15:07.229Z,15.3
2017-09-09T02:16:06.647Z,15.3
2017-09-09T03:17:50.426Z,15.3
2017-09-09T03:17:52.351Z,15.3
2017-09-09T03:18:22.835Z,15.3
2017-09-09T03:19:20.128Z,15.3
2017-09-09T03:20:19.554Z,15.3
2017-09-09T03:21:18.348Z,15.3
2017-09-09T03:22:17.646Z,15.3
2017-09-09T03:24:16.337Z,15.3
2017-09-09T03:25:15.643Z,15.3
2017-09-09T03:26:15.064Z,15.3
2017-09-09T03:28:13.752Z,15.3
2017-09-09T03:29:12.930Z,15.3
2017-09-09T03:30:11.983Z,15.3
2017-09-09T03:31:11.413Z,15.3
2017-09-09T03:32:10.585Z,15.3
2017-09-09T03:33:10.132Z,15.3
2017-09-09T03:34:08.802Z,15.3
2017-09-09T03:35:08.728Z,15.3
2017-09-09T03:36:07.533Z,15.3
2017-09-09T03:37:06.839Z,15.3
2017-09-09T03:38:06.137Z,15.3
2017-09-09T03:39:05.695Z,15.3
2017-09-09T03:40:04.738Z,15.3
2017-09-09T03:41:04.172Z,15.3
2017-09-09T03:42:03.346Z,15.3
2017-09-09T03:43:02.662Z,15.3
2017-09-09T03:45:01.112Z,15.3
2017-09-09T03:46:00.787Z,15.2
2017-09-09T03:46:59.704Z,15.3
2017-09-09T03:47:59.006Z,15.2
2017-09-09T03:48:58.436Z,15.2
2017-09-09T03:49:57.603Z,15.2
2017-09-09T03:50:56.778Z,15.2
2017-09-09T03:51:55.952Z,15.2
2017-09-09T03:52:55.495Z,15.2
2017-09-09T03:53:54.671Z,15.2
2017-09-09T03:54:53.730Z,15.3
2017-09-09T03:55:53.038Z,15.3
2017-09-09T03:56:52.724Z,15.3
2017-09-09T03:57:51.767Z,15.3
2017-09-09T03:58:50.947Z,15.3
2017-09-09T03:59:50.117Z,15.3
2017-09-09T04:00:49.289Z,15.3
2017-09-09T04:02:48.255Z,15.3
2017-09-09T04:03:47.273Z,15.3
2017-09-09T04:04:46.568Z,15.3
2017-09-09T04:05:45.865Z,15.3
2017-09-09T04:06:45.299Z,15.3
2017-09-09T04:07:44.735Z,15.3
2017-09-09T04:08:44.034Z,15.2
2017-09-09T04:09:42.958Z,15.2
2017-09-09T04:10:42.387Z,15.3
2017-09-09T04:11:41.812Z,15.3
2017-09-09T04:12:40.602Z,15.3
2017-09-09T04:13:40.401Z,15.3
2017-09-09T04:14:39.196Z,15.2
2017-09-09T04:15:38.621Z,15.2
2017-09-09T04:16:37.796Z,15.2
2017-09-09T04:17:37.094Z,15.2
2017-09-09T04:18:36.265Z,15.2
2017-09-09T04:19:35.569Z,15.2
2017-09-09T04:20:34.869Z,15.2
2017-09-09T04:21:34.295Z,15.2
2017-09-09T04:22:33.841Z,15.2
2017-09-09T04:23:33.016Z,15.2
2017-09-09T04:27:30.225Z,15.2
2017-09-09T04:28:29.527Z,15.2
2017-09-09T04:29:28.952Z,15.2
2017-09-09T04:30:27.749Z,15.2
2017-09-09T04:31:27.050Z,15.2
2017-09-09T04:32:26.225Z,15.2
2017-09-09T04:33:25.647Z,15.2
2017-09-09T04:34:24.946Z,15.2
2017-09-09T04:35:24.371Z,15.2
2017-09-09T04:36:23.544Z,15.2
2017-09-09T04:37:22.843Z,15.2
2017-09-09T04:38:22.022Z,15.2
2017-09-09T04:39:21.318Z,15.2
2017-09-09T04:40:20.497Z,15.2
2017-09-09T04:41:20.051Z,15.2
2017-09-09T04:42:19.352Z,15.2
2017-09-09T04:43:18.523Z,15.2
2017-09-09T04:44:18.075Z,15.2
2017-09-09T04:45:17.119Z,15.2
2017-09-09T04:46:16.049Z,15.2
2017-09-09T04:47:15.853Z,15.2
2017-09-09T04:48:14.773Z,15.2
2017-09-09T04:49:13.949Z,15.2
2017-09-09T04:50:13.130Z,15.2
2017-09-09T04:51:13.053Z,15.2
2017-09-09T04:52:11.986Z,15.2
2017-09-09T04:53:11.530Z,15.2
2017-09-09T04:54:10.597Z,15.2
2017-09-09T04:54:40.703Z,15.2
2017-09-09T04:55:11.309Z,15.2
2017-09-09T04:56:09.105Z,15.2
2017-09-09T04:57:08.281Z,15.2
2017-09-09T04:58:07.579Z,15.2
2017-09-09T04:59:07.001Z,15.2
2017-09-09T05:00:06.051Z,15.2
2017-09-09T05:01:05.352Z,15.2
2017-09-09T05:02:04.524Z,15.2
2017-09-09T05:03:03.575Z,15.2
2017-09-09T05:04:03.637Z,15.2
2017-09-09T05:05:02.684Z,15.2
2017-09-09T05:06:01.854Z,15.2
2017-09-09T05:07:01.281Z,15.2
2017-09-09T05:08:00.215Z,15.2
2017-09-09T05:08:59.143Z,15.2
2017-09-09T05:09:58.823Z,15.2
2017-09-09T05:10:57.871Z,15.2
2017-09-09T05:11:57.675Z,15.2
2017-09-09T05:12:56.470Z,15.2
2017-09-09T05:13:55.772Z,15.2
2017-09-09T05:14:55.324Z,15.2
2017-09-09T05:15:54.496Z,15.2
2017-09-09T05:16:53.669Z,15.2
2017-09-09T05:17:53.092Z,15.2
2017-09-09T05:18:52.518Z,15.2
2017-09-09T05:19:51.943Z,15.2
2017-09-09T05:20:51.372Z,15.3
2017-09-09T05:21:50.286Z,15.2
2017-09-09T05:22:49.210Z,15.3
2017-09-09T05:23:48.758Z,15.2
2017-09-09T05:24:47.807Z,15.2
2017-09-09T05:26:46.244Z,15.3
2017-09-09T05:27:45.921Z,15.3
2017-09-09T05:28:45.102Z,15.3
2017-09-09T05:29:44.776Z,15.3
2017-09-09T05:30:43.473Z,15.3
2017-09-09T05:31:42.897Z,15.3
2017-09-09T05:32:42.324Z,15.3
2017-09-09T05:33:41.747Z,15.3
2017-09-09T05:34:40.410Z,15.3
2017-09-09T05:35:40.340Z,15.3
2017-09-09T05:36:39.013Z,15.3
2017-09-09T05:37:38.950Z,15.3
2017-09-09T05:38:37.873Z,15.3
2017-09-09T05:40:36.562Z,15.3
2017-09-09T05:41:35.992Z,15.3
2017-09-09T05:42:35.042Z,15.3
2017-09-09T05:43:34.386Z,15.3
2017-09-09T05:44:33.681Z,15.3
2017-09-09T05:45:32.981Z,15.4
2017-09-09T05:46:32.533Z,15.4
2017-09-09T05:47:02.388Z,15.4
2017-09-09T05:47:33.004Z,15.4
2017-09-09T05:48:03.608Z,15.4
2017-09-09T05:48:33.969Z,15.5
2017-09-09T05:49:04.703Z,15.5
2017-09-09T05:50:29.167Z,15.5
2017-09-09T05:51:28.470Z,15.5
2017-09-09T05:52:27.517Z,15.6
2017-09-09T05:53:26.945Z,15.6
2017-09-09T05:54:25.863Z,15.6
2017-09-09T05:55:25.289Z,15.6
2017-09-09T05:56:24.591Z,15.6
2017-09-09T05:57:23.768Z,15.6
2017-09-09T05:59:22.590Z,15.6
2017-09-09T06:00:21.651Z,15.6
2017-09-09T06:01:20.953Z,15.6
2017-09-09T06:02:20.257Z,15.6
2017-09-09T06:03:19.935Z,15.6
2017-09-09T06:04:19.230Z,15.6
2017-09-09T06:05:18.153Z,15.5
2017-09-09T06:06:17.204Z,15.5
2017-09-09T06:07:16.507Z,15.5
2017-09-09T06:08:16.058Z,15.5
2017-09-09T06:09:15.107Z,15.5
2017-09-09T06:10:15.033Z,15.5
2017-09-09T06:11:13.709Z,15.5
2017-09-09T06:12:12.882Z,15.6
2017-09-09T06:13:12.687Z,15.6
2017-09-09T06:14:12.123Z,15.6
2017-09-09T06:15:10.929Z,15.8
2017-09-09T06:16:10.367Z,15.9
2017-09-09T06:17:09.667Z,15.9
2017-09-09T06:18:08.835Z,15.9
2017-09-09T06:19:08.147Z,15.9
2017-09-09T06:20:07.578Z,15.6
2017-09-09T06:21:06.500Z,15.6
2017-09-09T06:22:05.801Z,15.5
2017-09-09T06:23:05.099Z,15.4
2017-09-09T06:24:04.532Z,15.3
2017-09-09T06:25:03.952Z,15.2
2017-09-09T06:26:03.010Z,15.2
2017-09-09T06:27:02.310Z,15.1
2017-09-09T06:28:01.736Z,15
2017-09-09T06:29:01.161Z,15
2017-09-09T06:29:31.917Z,15
2017-09-09T06:30:02.400Z,14.8
2017-09-09T06:30:59.057Z,14.8
2017-09-09T06:31:58.732Z,14.5
2017-09-09T06:32:58.028Z,14.3
2017-09-09T06:33:57.464Z,14.2
2017-09-09T06:34:56.629Z,14.1
2017-09-09T06:35:56.180Z,14.1
2017-09-09T06:36:54.972Z,14
2017-09-09T06:37:54.145Z,14
2017-09-09T06:38:53.734Z,14
2017-09-09T06:39:53.034Z,14
2017-09-09T06:40:52.347Z,14
2017-09-09T06:41:51.641Z,14.1
2017-09-09T06:42:50.948Z,14.1
2017-09-09T06:43:49.878Z,14
2017-09-09T06:45:48.693Z,14
2017-09-09T06:46:47.865Z,14
2017-09-09T06:47:47.035Z,13.9
2017-09-09T06:48:46.341Z,13.9
2017-09-09T06:49:45.522Z,13.9
2017-09-09T06:50:44.693Z,13.9
2017-09-09T06:51:44.497Z,13.9
2017-09-09T06:52:43.799Z,13.9
2017-09-09T06:53:42.348Z,13.8
2017-09-09T06:54:42.024Z,13.8
2017-09-09T06:55:41.449Z,13.8
2017-09-09T06:56:40.510Z,13.7
2017-09-09T06:57:39.812Z,13.7
2017-09-09T06:58:39.109Z,13.7
2017-09-09T06:59:38.281Z,13.7
2017-09-09T07:00:37.847Z,13.7
2017-09-09T07:01:37.152Z,13.7
2017-09-09T07:02:36.323Z,13.7
2017-09-09T07:03:35.995Z,13.6
2017-09-09T07:04:34.545Z,13.6
2017-09-09T07:05:34.350Z,13.6
2017-09-09T07:07:32.659Z,13.6
2017-09-09T07:08:31.977Z,13.6
2017-09-09T07:09:31.281Z,13.6
2017-09-09T07:10:30.701Z,13.6
2017-09-09T07:11:30.246Z,13.6
2017-09-09T07:12:29.293Z,13.7
2017-09-09T07:13:28.344Z,13.7
2017-09-09T07:14:27.778Z,13.7
2017-09-09T07:15:27.328Z,13.8
2017-09-09T07:16:26.133Z,13.8
2017-09-09T07:16:56.498Z,13.8
2017-09-09T07:17:26.735Z,13.8
2017-09-09T07:18:24.912Z,13.9
2017-09-09T07:19:23.731Z,14
2017-09-09T07:20:22.902Z,14
2017-09-09T07:41:07.805Z,14.4
2017-09-09T07:44:05.876Z,14.5
2017-09-09T07:45:05.169Z,14.5
2017-09-09T07:46:04.343Z,14.5
2017-09-09T07:47:03.642Z,14.5
2017-09-09T07:48:02.823Z,14.5
2017-09-09T07:49:02.002Z,14.5
2017-09-09T07:50:01.426Z,14.6
2017-09-09T07:51:00.374Z,14.8
2017-09-09T07:52:59.195Z,15
2017-09-09T07:54:57.124Z,15.1
2017-09-09T07:55:57.051Z,15.1
2017-09-09T07:57:55.109Z,15.1
2017-09-09T07:58:54.658Z,15.1
2017-09-09T08:00:53.220Z,15.1
2017-09-09T08:02:51.658Z,15.1
2017-09-09T08:03:50.710Z,15.2
2017-09-09T08:04:50.513Z,15.2
2017-09-09T08:05:49.564Z,15.2
2017-09-09T08:06:48.734Z,15.3
2017-09-09T08:07:48.035Z,15.3
2017-09-09T08:08:47.210Z,15.3
2017-09-09T08:09:46.514Z,15.3
2017-09-09T08:11:45.329Z,15.3
2017-09-09T08:12:44.630Z,15.3
2017-09-09T08:13:43.803Z,15.3
2017-09-09T08:15:41.859Z,15.4
2017-09-09T08:16:41.419Z,15.4
2017-09-09T08:17:40.462Z,15.4
2017-09-09T08:19:39.652Z,15.5
2017-09-09T08:20:38.325Z,15.5
2017-09-09T08:23:36.018Z,15.5
2017-09-09T08:24:35.314Z,15.5
2017-09-09T08:25:34.863Z,15.5
2017-09-09T08:26:34.285Z,15.5
2017-09-09T08:27:33.584Z,15.5
2017-09-09T08:29:32.149Z,15.5
2017-09-09T08:30:31.324Z,15.5
2017-09-09T08:31:30.748Z,15.5
2017-09-09T08:32:29.923Z,15.5
2017-09-09T08:33:28.591Z,15.5
2017-09-09T08:35:27.154Z,15.6
2017-09-09T08:36:26.966Z,15.6
2017-09-09T08:45:20.351Z,15.5
2017-09-09T08:46:19.529Z,15.5
2017-09-09T08:48:18.210Z,15.5
2017-09-09T08:50:16.774Z,15.5
2017-09-09T08:51:15.694Z,15.5
2017-09-09T08:52:15.246Z,15.5
2017-09-09T08:53:14.803Z,15.5
2017-09-09T08:54:13.600Z,15.5
2017-09-09T08:55:12.779Z,15.5
2017-09-09T08:56:12.589Z,15.5
2017-09-09T08:57:11.387Z,15.5
2017-09-09T08:58:10.942Z,15.5
2017-09-09T08:59:10.497Z,15.5
2017-09-09T09:00:09.673Z,15.5
2017-09-09T09:01:08.978Z,15.5
2017-09-09T09:03:07.034Z,15.5
2017-09-09T09:04:06.592Z,15.5
2017-09-09T09:05:06.049Z,15.5
2017-09-09T09:08:03.370Z,15.5
2017-09-09T09:11:01.326Z,15.5
2017-09-09T09:12:00.623Z,15.5
2017-09-09T09:12:59.919Z,15.5
2017-09-09T09:14:58.648Z,15.5
2017-09-09T09:15:58.076Z,15.5
2017-09-09T09:16:56.997Z,15.5
2017-09-09T09:17:56.175Z,15.5
2017-09-09T09:18:55.477Z,15.6
2017-09-09T09:19:54.651Z,15.6
2017-09-09T09:20:54.328Z,15.6
2017-09-09T09:21:53.631Z,15.6
2017-09-09T09:22:52.559Z,15.6
2017-09-09T09:24:51.249Z,15.6
2017-09-09T09:26:49.686Z,15.6
2017-09-09T09:27:48.854Z,15.6
2017-09-09T09:28:48.528Z,15.6
2017-09-09T09:29:47.706Z,15.6
2017-09-09T09:30:46.875Z,15.6
2017-09-09T09:31:46.430Z,15.6
2017-09-09T09:32:45.608Z,15.6
2017-09-09T09:33:45.035Z,15.6
2017-09-09T09:34:43.956Z,15.6
2017-09-09T09:35:43.129Z,15.6
2017-09-09T09:36:42.680Z,15.6
2017-09-09T09:37:42.232Z,15.6
2017-09-09T09:38:41.031Z,15.7
2017-09-09T09:39:40.457Z,15.7
2017-09-09T09:40:39.513Z,15.7
2017-09-09T09:42:38.205Z,15.8
2017-09-09T09:43:37.379Z,15.8
2017-09-09T09:44:36.422Z,15.8
2017-09-09T09:45:06.776Z,15.8
2017-09-09T09:47:34.522Z,15.8
2017-09-09T09:48:33.948Z,15.8
2017-09-09T09:49:33.120Z,15.8
2017-09-09T09:50:32.428Z,15.8
2017-09-09T09:51:31.477Z,15.8
2017-09-09T09:52:31.404Z,15.8
2017-09-09T09:53:30.577Z,15.8
2017-09-09T09:54:30.030Z,15.9
2017-09-09T09:56:28.461Z,15.9
2017-09-09T09:58:26.768Z,15.9
2017-09-09T10:05:21.762Z,15.9
2017-09-09T10:06:21.183Z,15.9
2017-09-09T10:09:18.880Z,16
2017-09-09T10:10:18.056Z,15.9
2017-09-09T10:12:16.865Z,16
2017-09-09T10:16:13.815Z,16
2017-09-09T10:17:13.243Z,16
2017-09-09T10:18:12.791Z,16
2017-09-09T10:19:11.842Z,16
2017-09-09T10:20:10.890Z,16
2017-09-09T10:21:10.194Z,16
2017-09-09T10:22:09.490Z,16
2017-09-09T10:23:09.038Z,16
2017-09-09T10:24:08.337Z,16
2017-09-09T10:25:07.642Z,16
2017-09-09T10:26:06.943Z,16
2017-09-09T10:27:06.366Z,16
2017-09-09T10:28:05.035Z,16
2017-09-09T10:29:04.964Z,16.1
2017-09-09T10:30:03.766Z,16.1
2017-09-09T10:32:02.208Z,16.1
2017-09-09T10:33:02.141Z,16.1
2017-09-09T10:35:00.202Z,16
2017-09-09T10:36:58.887Z,15.7
2017-09-09T10:37:58.059Z,15.6
2017-09-09T10:38:28.799Z,15.6
2017-09-09T10:38:59.157Z,15.5
2017-09-09T10:42:54.990Z,15.5
2017-09-09T10:43:54.291Z,15.5
2017-09-09T10:45:52.474Z,15.6
2017-09-09T10:46:52.026Z,15.9
2017-09-09T10:48:50.457Z,16.1
2017-09-09T10:51:48.407Z,16.3
2017-09-09T10:52:47.834Z,16.3
2017-09-09T10:54:46.522Z,16.4
2017-09-09T10:55:16.383Z,16.4
2017-09-09T10:56:44.877Z,16.5
2017-09-09T10:57:44.050Z,16.5
2017-09-09T10:58:43.483Z,16.5
2017-09-09T11:00:42.300Z,16.5
2017-09-09T11:01:41.597Z,16.5
2017-09-09T11:02:40.896Z,16.6
2017-09-09T11:03:40.076Z,16.6
2017-09-09T11:04:39.502Z,16.6
2017-09-09T11:07:36.953Z,16.6
2017-09-09T11:08:36.252Z,16.6
2017-09-09T11:10:34.943Z,16.6
2017-09-09T11:11:34.364Z,16.6
2017-09-09T11:12:33.412Z,16.6
2017-09-09T11:13:32.959Z,16.6
2017-09-09T11:15:31.556Z,16.6
2017-09-09T11:16:31.112Z,16.6
2017-09-09T11:17:30.157Z,16.6
2017-09-09T11:18:29.080Z,16.1
2017-09-09T11:19:29.007Z,16.1
2017-09-09T11:20:27.921Z,15.8
2017-09-09T11:22:26.728Z,15.3
2017-09-09T11:24:25.159Z,15.1
2017-09-09T11:25:24.583Z,15.1
2017-09-09T11:26:24.013Z,15
2017-09-09T11:28:22.825Z,15
2017-09-09T11:29:21.621Z,14.9
2017-09-09T11:31:20.436Z,14.8
2017-09-09T11:37:16.165Z,14.8
2017-09-09T11:37:46.526Z,14.8
2017-09-09T11:40:14.405Z,14.9
2017-09-09T11:41:13.701Z,14.9
2017-09-09T11:42:13.255Z,14.9
2017-09-09T11:43:12.172Z,14.8
2017-09-09T11:44:11.511Z,14.8
2017-09-09T11:45:10.821Z,14.8
2017-09-09T11:46:10.381Z,14.8
2017-09-09T11:47:09.677Z,14.8
2017-09-09T11:48:08.977Z,14.8
2017-09-09T11:49:08.274Z,14.8
2017-09-09T11:50:07.702Z,14.7
2017-09-09T11:51:06.250Z,14.7
2017-09-09T11:57:02.375Z,14.8
2017-09-09T11:58:01.672Z,14.8
2017-09-09T11:59:01.131Z,14.9
2017-09-09T12:00:00.549Z,15
2017-09-09T12:00:59.725Z,15
2017-09-09T12:03:57.547Z,15.2
2017-09-09T12:04:56.842Z,15.3
2017-09-09T12:05:55.895Z,15.2
2017-09-09T12:06:55.575Z,15.3
2017-09-09T12:07:54.997Z,15.3
2017-09-09T12:08:54.294Z,15.3
2017-09-09T12:09:53.341Z,15.3
2017-09-09T12:14:50.313Z,15.4
2017-09-09T12:15:49.361Z,15.4
2017-09-09T12:16:48.914Z,15.5
2017-09-09T12:18:47.097Z,15.6
2017-09-09T12:19:46.273Z,15.6
2017-09-09T12:21:45.087Z,15.8
2017-09-09T12:23:43.775Z,15.8
2017-09-09T12:24:42.705Z,15.6
2017-09-09T12:27:40.909Z,15.5
2017-09-09T12:28:40.328Z,15.5
2017-09-09T12:29:39.257Z,15.5
2017-09-09T12:30:38.432Z,15.5
2017-09-09T12:31:37.981Z,15.5
2017-09-09T12:32:37.289Z,15.5
2017-09-09T12:34:35.726Z,15.3
2017-09-09T12:35:35.027Z,15.2
2017-09-09T12:37:33.853Z,15.1
2017-09-09T12:38:33.028Z,15.1
2017-09-09T12:39:32.081Z,15.1
2017-09-09T12:40:31.888Z,15.1
2017-09-09T12:41:31.094Z,15.1
2017-09-09T12:42:30.267Z,15.1
2017-09-09T12:43:29.571Z,15.1
2017-09-09T12:44:28.872Z,15
2017-09-09T12:45:28.168Z,15
2017-09-09T12:46:27.462Z,15
2017-09-09T12:47:26.764Z,15
2017-09-09T12:48:25.940Z,15
2017-09-09T12:51:24.023Z,15.1
2017-09-09T12:52:23.320Z,15.1
2017-09-09T12:53:22.750Z,15.1
2017-09-09T12:54:22.181Z,15.1
2017-09-09T12:55:21.110Z,15.1
2017-09-09T12:56:20.285Z,15.2
2017-09-09T12:57:19.707Z,15.2
2017-09-09T12:58:18.883Z,15.3
2017-09-09T12:59:18.055Z,15.4
2017-09-09T13:00:17.859Z,15.5
2017-09-09T13:01:17.029Z,15.5
2017-09-09T13:02:16.329Z,15.6
2017-09-09T13:03:15.504Z,15.7
2017-09-09T13:04:14.681Z,15.8
2017-09-09T13:05:13.730Z,15.8
2017-09-09T13:06:13.153Z,15.8
2017-09-09T13:07:12.706Z,16
2017-09-09T13:08:12.130Z,16
2017-09-09T13:09:11.184Z,16
2017-09-09T13:10:10.374Z,16
2017-09-09T13:11:09.674Z,16
2017-09-09T13:12:09.477Z,15.9
2017-09-09T13:13:08.522Z,15.8
2017-09-09T13:14:07.700Z,15.6
2017-09-09T13:15:06.744Z,15.6
2017-09-09T13:18:04.825Z,15.3
2017-09-09T13:19:04.200Z,15.3
2017-09-09T13:20:03.501Z,15.3
2017-09-09T13:21:03.052Z,15.3
2017-09-09T13:22:02.110Z,15.3
2017-09-09T13:25:00.062Z,15.3
2017-09-09T13:26:58.749Z,15.3
2017-09-09T13:27:57.918Z,15.4
2017-09-09T13:28:57.344Z,15.5
2017-09-09T13:29:56.399Z,15.4
2017-09-09T13:30:55.694Z,15.5
2017-09-09T13:31:54.996Z,15.5
2017-09-09T13:32:54.048Z,15.5
2017-09-09T13:33:53.346Z,15.5
2017-09-09T13:34:53.271Z,15.5
2017-09-09T13:35:52.068Z,15.6
2017-09-09T13:36:51.492Z,15.7
2017-09-09T13:37:50.784Z,15.8
2017-09-09T13:38:50.078Z,16
2017-09-09T13:39:49.253Z,16.1
2017-09-09T13:40:48.679Z,16.3
2017-09-09T13:41:47.978Z,16.5
2017-09-09T13:42:47.275Z,16.6
2017-09-09T13:43:46.448Z,16.6
2017-09-09T13:44:45.999Z,16.6
2017-09-09T13:45:45.053Z,16.7
2017-09-09T13:46:44.612Z,16.8
2017-09-09T13:47:44.155Z,16.8
2017-09-09T13:48:43.583Z,16.8
2017-09-09T13:49:42.381Z,16.8
2017-09-09T13:50:41.819Z,16.8
2017-09-09T13:51:41.243Z,16.8
2017-09-09T13:52:40.546Z,16.8
2017-09-09T13:53:39.327Z,16.8
2017-09-09T13:54:39.253Z,16.8
2017-09-09T13:55:38.317Z,16.8
2017-09-09T13:56:08.928Z,16.8
2017-09-09T13:56:39.552Z,16.8
2017-09-09T13:57:10.167Z,16.8
2017-09-09T13:57:40.150Z,16.8
2017-09-09T13:58:10.640Z,16.8
2017-09-09T13:58:41.255Z,16.8
2017-09-09T13:59:11.875Z,16.8
2017-09-09T13:59:42.106Z,16.9
2017-09-09T14:00:12.716Z,16.9
2017-09-09T14:01:34.030Z,17
2017-09-09T14:02:33.703Z,17
2017-09-09T14:03:32.882Z,17
2017-09-09T14:04:31.804Z,17
2017-09-09T14:05:31.484Z,17
2017-09-09T14:06:30.656Z,17
2017-09-09T14:07:29.957Z,17
2017-09-09T14:08:29.506Z,17.1
2017-09-09T14:09:28.801Z,17.1
2017-09-09T14:10:28.229Z,17.1
2017-09-09T14:10:58.474Z,17.1
2017-09-09T14:11:28.455Z,17.1
2017-09-09T14:13:26.007Z,17.1
2017-09-09T14:14:25.304Z,17.1
2017-09-09T14:15:24.727Z,17.1
2017-09-09T14:16:24.153Z,17.1
2017-09-09T14:17:23.337Z,17.1
2017-09-09T14:18:22.387Z,17.1
2017-09-09T14:19:21.688Z,17
2017-09-09T14:20:21.733Z,17
2017-09-09T14:21:20.277Z,17.1
2017-09-09T14:22:19.823Z,17.1
2017-09-09T14:23:19.120Z,17.1
2017-09-09T14:24:18.428Z,17.1
2017-09-09T14:25:17.730Z,17
2017-09-09T14:26:17.157Z,17
2017-09-09T14:27:16.333Z,17
2017-09-09T14:29:14.899Z,17
2017-09-09T14:30:14.574Z,17
2017-09-09T14:31:13.753Z,17
2017-09-09T14:32:12.804Z,17
2017-09-09T14:33:12.733Z,17
2017-09-09T14:34:11.404Z,17
2017-09-09T14:35:11.086Z,17
2017-09-09T14:36:10.135Z,17
2017-09-09T14:37:09.937Z,17
2017-09-09T14:38:09.236Z,17
2017-09-09T14:39:08.536Z,17
2017-09-09T14:40:07.583Z,17
2017-09-09T14:41:06.886Z,17
2017-09-09T14:43:05.576Z,17.1
2017-09-09T14:44:05.000Z,17.1
2017-09-09T14:46:03.564Z,17.1
2017-09-09T14:47:02.870Z,17.1
2017-09-09T14:48:02.169Z,17.1
2017-09-09T14:49:01.341Z,17.1
2017-09-09T14:50:00.388Z,17.1
2017-09-09T14:51:00.067Z,17.1
2017-09-09T14:51:30.554Z,17.1
2017-09-09T14:52:00.924Z,17.1
2017-09-09T14:52:58.713Z,17.1
2017-09-09T14:53:58.526Z,17.1
2017-09-09T14:54:57.203Z,17.1
2017-09-09T14:56:55.895Z,17.1
2017-09-09T14:57:55.701Z,17.1
2017-09-09T14:58:54.619Z,17.1
2017-09-09T14:59:53.981Z,17.1
2017-09-09T15:00:53.536Z,17.1
2017-09-09T15:01:52.845Z,17.1
2017-09-09T15:02:52.024Z,17.1
2017-09-09T15:03:51.450Z,17.1
2017-09-09T15:04:50.884Z,17.1
2017-09-09T15:05:50.187Z,17.1
2017-09-09T15:06:49.362Z,17.1
2017-09-09T15:08:47.922Z,17.1
2017-09-09T15:09:47.225Z,17
2017-09-09T15:10:46.533Z,17
2017-09-09T15:11:46.212Z,17
2017-09-09T15:12:45.646Z,17
2017-09-09T15:13:44.318Z,17
2017-09-09T15:14:44.120Z,17
2017-09-09T15:15:43.420Z,16.9
2017-09-09T15:16:42.972Z,16.9
2017-09-09T15:17:41.515Z,16.9
2017-09-09T15:18:41.196Z,17
2017-09-09T15:19:40.240Z,17
2017-09-09T15:20:39.786Z,17
2017-09-09T15:21:38.960Z,17
2017-09-09T15:22:38.519Z,17
2017-09-09T15:23:38.080Z,17
2017-09-09T15:24:36.879Z,17
2017-09-09T15:25:36.937Z,17.1
2017-09-09T15:26:35.859Z,17.1
2017-09-09T15:27:35.161Z,17.1
2017-09-09T15:28:34.208Z,17.1
2017-09-09T15:29:33.510Z,17
2017-09-09T15:30:33.191Z,17.1
2017-09-09T15:31:32.498Z,17.1
2017-09-09T15:32:31.797Z,17.1
2017-09-09T15:33:30.978Z,17
2017-09-09T15:34:30.278Z,17
2017-09-09T15:35:29.710Z,17
2017-09-09T15:36:28.758Z,17
2017-09-09T15:37:28.178Z,17
2017-09-09T15:38:27.479Z,16.9
2017-09-09T15:39:26.907Z,16.9
2017-09-09T15:40:26.079Z,17
2017-09-09T15:41:25.377Z,16.9
2017-09-09T15:42:24.674Z,16.9
2017-09-09T15:43:24.351Z,16.8
2017-09-09T15:45:22.914Z,16.9
2017-09-09T15:46:22.215Z,16.9
2017-09-09T15:47:21.648Z,16.9
2017-09-09T15:47:52.009Z,16.9
2017-09-09T15:49:19.990Z,16.9
2017-09-09T15:50:19.418Z,16.9
2017-09-09T15:51:18.844Z,16.9
2017-09-09T15:52:18.265Z,16.9
2017-09-09T15:53:17.566Z,16.9
2017-09-09T15:54:16.499Z,16.9
2017-09-09T15:55:15.794Z,16.9
2017-09-09T15:56:14.977Z,16.9
2017-09-09T15:57:14.906Z,16.9
2017-09-09T15:58:13.955Z,16.9
2017-09-09T15:59:13.537Z,16.8
2017-09-09T16:01:11.600Z,16.8
2017-09-09T16:03:10.165Z,16.8
2017-09-09T16:04:10.221Z,16.8
2017-09-09T16:05:09.018Z,16.8
2017-09-09T16:06:08.578Z,16.8
2017-09-09T16:07:07.751Z,16.8
2017-09-09T16:09:06.696Z,16.8
2017-09-09T16:10:05.748Z,16.8
2017-09-09T16:11:05.179Z,16.8
2017-09-09T16:12:04.477Z,16.8
2017-09-09T16:13:03.783Z,16.7
2017-09-09T16:14:03.091Z,16.6
2017-09-09T16:15:02.192Z,16.6
2017-09-09T16:16:01.512Z,16.6
2017-09-09T16:17:00.689Z,16.6
2017-09-09T16:17:59.990Z,16.6
2017-09-09T16:18:59.671Z,16.6
2017-09-09T16:19:58.597Z,16.6
2017-09-09T16:20:58.397Z,16.6
2017-09-09T16:21:57.833Z,16.6
2017-09-09T16:22:56.638Z,16.5
2017-09-09T16:23:56.313Z,16.5
2017-09-09T16:24:55.614Z,16.5
2017-09-09T16:25:54.920Z,16.5
2017-09-09T16:26:54.219Z,16.5
2017-09-09T16:27:53.019Z,16.5
2017-09-09T16:28:52.570Z,16.5